sensor_id;sensor_type;location;lat;lon;timestamp;pressure;altitude;pressure_sealevel;temperature;humidity
73633;BME280;61927;50.080;14.418;2023-02-15T00:00:53;101105.91;;;5.26;66.01
73633;BME280;61927;50.080;14.418;2023-02-15T00:03:29;101104.19;;;5.25;65.86
73633;BME280;61927;50.080;14.418;2023-02-15T00:05:56;101103.44;;;5.14;66.66
73633;BME280;61927;50.080;14.418;2023-02-15T00:08:22;101107.09;;;5.04;66.55
73633;BME280;61927;50.080;14.418;2023-02-15T00:10:48;101108.84;;;5.05;66.63
73633;BME280;61927;50.080;14.418;2023-02-15T00:13:13;101102.69;;;5.04;67.35
73633;BME280;61927;50.080;14.418;2023-02-15T00:15:39;101105.34;;;5.04;66.93
73633;BME280;61927;50.080;14.418;2023-02-15T00:18:05;101102.75;;;5.00;66.61
73633;BME280;61927;50.080;14.418;2023-02-15T00:20:30;101099.38;;;4.90;67.31
73633;BME280;61927;50.080;14.418;2023-02-15T00:22:56;101100.25;;;4.89;67.47
73633;BME280;61927;50.080;14.418;2023-02-15T00:25:22;101099.31;;;4.95;66.91
73633;BME280;61927;50.080;14.418;2023-02-15T00:27:47;101104.59;;;4.93;66.37
73633;BME280;61927;50.080;14.418;2023-02-15T00:30:13;101094.19;;;4.84;67.00
73633;BME280;61927;50.080;14.418;2023-02-15T00:32:38;101093.44;;;4.73;66.83
73633;BME280;61927;50.080;14.418;2023-02-15T00:35:04;101097.81;;;4.74;67.04
73633;BME280;61927;50.080;14.418;2023-02-15T00:37:30;101089.88;;;4.78;67.72
73633;BME280;61927;50.080;14.418;2023-02-15T00:39:56;101089.00;;;4.78;67.00
73633;BME280;61927;50.080;14.418;2023-02-15T00:42:21;101092.53;;;4.75;68.32
73633;BME280;61927;50.080;14.418;2023-02-15T00:44:47;101091.63;;;4.79;68.19
73633;BME280;61927;50.080;14.418;2023-02-15T00:47:12;101088.16;;;4.74;66.53
73633;BME280;61927;50.080;14.418;2023-02-15T00:49:38;101083.94;;;4.63;67.09
73633;BME280;61927;50.080;14.418;2023-02-15T00:52:03;101080.44;;;4.61;67.64
73633;BME280;61927;50.080;14.418;2023-02-15T00:54:29;101090.94;;;4.62;67.75
73633;BME280;61927;50.080;14.418;2023-02-15T00:56:55;101082.13;;;4.68;67.39
73633;BME280;61927;50.080;14.418;2023-02-15T00:59:20;101082.91;;;4.74;67.67
73633;BME280;61927;50.080;14.418;2023-02-15T01:01:46;101077.63;;;4.77;67.94
73633;BME280;61927;50.080;14.418;2023-02-15T01:04:11;101077.63;;;4.76;67.56
73633;BME280;61927;50.080;14.418;2023-02-15T01:06:37;101083.66;;;4.84;67.61
73633;BME280;61927;50.080;14.418;2023-02-15T01:09:03;101089.00;;;4.78;66.87
73633;BME280;61927;50.080;14.418;2023-02-15T01:11:28;101080.34;;;4.70;67.15
73633;BME280;61927;50.080;14.418;2023-02-15T01:13:56;101077.78;;;4.64;68.09
73633;BME280;61927;50.080;14.418;2023-02-15T01:16:23;101083.91;;;4.64;67.93
73633;BME280;61927;50.080;14.418;2023-02-15T01:18:50;101071.53;;;4.72;68.04
73633;BME280;61927;50.080;14.418;2023-02-15T01:21:18;101066.25;;;4.74;66.55
73633;BME280;61927;50.080;14.418;2023-02-15T01:23:44;101068.16;;;4.63;67.93
73633;BME280;61927;50.080;14.418;2023-02-15T01:26:09;101070.78;;;4.61;68.20
73633;BME280;61927;50.080;14.418;2023-02-15T01:28:36;101065.53;;;4.61;67.09
73633;BME280;61927;50.080;14.418;2023-02-15T01:31:06;101062.09;;;4.56;67.98
73633;BME280;61927;50.080;14.418;2023-02-15T01:33:34;101063.00;;;4.53;67.78
73633;BME280;61927;50.080;14.418;2023-02-15T01:35:59;101056.88;;;4.51;68.71
73633;BME280;61927;50.080;14.418;2023-02-15T01:38:25;101045.47;;;4.52;68.17
73633;BME280;61927;50.080;14.418;2023-02-15T01:40:52;101046.41;;;4.50;68.19
73633;BME280;61927;50.080;14.418;2023-02-15T01:43:18;101042.91;;;4.48;68.20
73633;BME280;61927;50.080;14.418;2023-02-15T01:45:45;101041.97;;;4.53;68.32
73633;BME280;61927;50.080;14.418;2023-02-15T01:48:22;101048.16;;;4.48;68.02
73633;BME280;61927;50.080;14.418;2023-02-15T01:50:57;101042.97;;;4.43;68.98
73633;BME280;61927;50.080;14.418;2023-02-15T01:53:37;101036.88;;;4.40;68.39
73633;BME280;61927;50.080;14.418;2023-02-15T01:56:09;101032.44;;;4.43;67.96
73633;BME280;61927;50.080;14.418;2023-02-15T01:58:37;101032.44;;;4.45;67.82
73633;BME280;61927;50.080;14.418;2023-02-15T02:01:04;101031.63;;;4.38;67.97
73633;BME280;61927;50.080;14.418;2023-02-15T02:03:53;101029.03;;;4.35;68.61
73633;BME280;61927;50.080;14.418;2023-02-15T02:06:22;101024.72;;;4.30;68.48
73633;BME280;61927;50.080;14.418;2023-02-15T02:08:48;101029.16;;;4.25;68.61
73633;BME280;61927;50.080;14.418;2023-02-15T02:11:14;101017.81;;;4.19;68.88
73633;BME280;61927;50.080;14.418;2023-02-15T02:13:41;101027.50;;;4.14;69.03
73633;BME280;61927;50.080;14.418;2023-02-15T02:30:02;101020.63;;;4.04;69.77
73633;BME280;61927;50.080;14.418;2023-02-15T02:35:22;101010.72;;;4.28;69.03
73633;BME280;61927;50.080;14.418;2023-02-15T02:40:34;101002.84;;;4.29;68.31
73633;BME280;61927;50.080;14.418;2023-02-15T02:45:44;101006.44;;;4.19;68.96
73633;BME280;61927;50.080;14.418;2023-02-15T02:48:20;101010.91;;;4.12;68.76
73633;BME280;61927;50.080;14.418;2023-02-15T02:50:48;101020.56;;;4.09;69.33
73633;BME280;61927;50.080;14.418;2023-02-15T02:53:13;101012.66;;;4.10;69.74
73633;BME280;61927;50.080;14.418;2023-02-15T02:55:48;101009.13;;;4.14;69.13
73633;BME280;61927;50.080;14.418;2023-02-15T03:00:50;101014.41;;;4.11;69.08
73633;BME280;61927;50.080;14.418;2023-02-15T03:03:25;101009.97;;;4.16;68.67
73633;BME280;61927;50.080;14.418;2023-02-15T03:05:55;101004.69;;;4.21;68.84
73633;BME280;61927;50.080;14.418;2023-02-15T03:08:24;101009.06;;;4.19;68.87
73633;BME280;61927;50.080;14.418;2023-02-15T03:10:55;101000.34;;;4.17;68.63
73633;BME280;61927;50.080;14.418;2023-02-15T03:13:22;101016.13;;;4.14;69.04
73633;BME280;61927;50.080;14.418;2023-02-15T03:15:50;101009.13;;;4.13;68.92
73633;BME280;61927;50.080;14.418;2023-02-15T03:18:39;101001.34;;;4.04;69.53
73633;BME280;61927;50.080;14.418;2023-02-15T03:21:07;101002.22;;;4.04;69.01
73633;BME280;61927;50.080;14.418;2023-02-15T03:23:34;101010.03;;;4.10;69.23
73633;BME280;61927;50.080;14.418;2023-02-15T03:26:03;101000.38;;;4.14;68.62
73633;BME280;61927;50.080;14.418;2023-02-15T03:28:35;101001.28;;;4.11;68.95
73633;BME280;61927;50.080;14.418;2023-02-15T03:31:04;101002.25;;;4.03;68.71
73633;BME280;61927;50.080;14.418;2023-02-15T03:33:32;100994.34;;;4.04;69.30
73633;BME280;61927;50.080;14.418;2023-02-15T03:39:05;100985.66;;;3.98;69.04
73633;BME280;61927;50.080;14.418;2023-02-15T03:41:37;100987.47;;;3.91;69.61
73633;BME280;61927;50.080;14.418;2023-02-15T03:44:23;100983.94;;;3.97;69.38
73633;BME280;61927;50.080;14.418;2023-02-15T03:46:56;100981.31;;;3.97;68.85
73633;BME280;61927;50.080;14.418;2023-02-15T03:49:36;100976.16;;;3.86;69.46
73633;BME280;61927;50.080;14.418;2023-02-15T03:52:05;100984.06;;;3.84;70.05
73633;BME280;61927;50.080;14.418;2023-02-15T03:54:34;100983.16;;;3.87;69.07
73633;BME280;61927;50.080;14.418;2023-02-15T03:57:27;100982.28;;;3.86;69.58
73633;BME280;61927;50.080;14.418;2023-02-15T04:00:18;100983.97;;;3.94;69.25
73633;BME280;61927;50.080;14.418;2023-02-15T04:05:31;100984.03;;;3.86;69.59
73633;BME280;61927;50.080;14.418;2023-02-15T04:07:57;100993.69;;;3.82;69.31
73633;BME280;61927;50.080;14.418;2023-02-15T04:10:22;100991.09;;;3.79;69.04
73633;BME280;61927;50.080;14.418;2023-02-15T04:13:06;100984.09;;;3.78;69.44
73633;BME280;61927;50.080;14.418;2023-02-15T04:15:31;100990.22;;;3.79;69.77
73633;BME280;61927;50.080;14.418;2023-02-15T04:18:15;100976.16;;;3.84;69.27
73633;BME280;61927;50.080;14.418;2023-02-15T04:20:45;100991.00;;;3.90;68.48
73633;BME280;61927;50.080;14.418;2023-02-15T04:23:29;100985.91;;;3.73;68.55
73633;BME280;61927;50.080;14.418;2023-02-15T04:26:14;100981.63;;;3.63;69.71
73633;BME280;61927;50.080;14.418;2023-02-15T04:28:40;100979.03;;;3.59;69.81
73633;BME280;61927;50.080;14.418;2023-02-15T04:31:05;100979.06;;;3.57;69.79
73633;BME280;61927;50.080;14.418;2023-02-15T04:33:31;100978.16;;;3.60;69.75
73633;BME280;61927;50.080;14.418;2023-02-15T04:35:56;100974.63;;;3.64;69.76
73633;BME280;61927;50.080;14.418;2023-02-15T04:38:22;100980.69;;;3.69;69.46
73633;BME280;61927;50.080;14.418;2023-02-15T04:40:51;100978.91;;;3.72;69.66
73633;BME280;61927;50.080;14.418;2023-02-15T04:43:19;100980.78;;;3.61;69.59
73633;BME280;61927;50.080;14.418;2023-02-15T04:45:50;100976.47;;;3.52;69.61
73633;BME280;61927;50.080;14.418;2023-02-15T04:48:17;100980.00;;;3.48;69.75
73633;BME280;61927;50.080;14.418;2023-02-15T04:50:44;100973.84;;;3.52;69.63
73633;BME280;61927;50.080;14.418;2023-02-15T04:53:10;100976.50;;;3.51;69.90
73633;BME280;61927;50.080;14.418;2023-02-15T04:55:35;100975.59;;;3.52;70.22
73633;BME280;61927;50.080;14.418;2023-02-15T04:58:01;100978.19;;;3.58;69.83
73633;BME280;61927;50.080;14.418;2023-02-15T05:00:26;100970.31;;;3.58;69.93
73633;BME280;61927;50.080;14.418;2023-02-15T05:02:52;100970.31;;;3.56;70.06
73633;BME280;61927;50.080;14.418;2023-02-15T05:05:18;100975.59;;;3.53;69.98
73633;BME280;61927;50.080;14.418;2023-02-15T05:07:44;100973.88;;;3.51;69.70
73633;BME280;61927;50.080;14.418;2023-02-15T05:10:10;100972.94;;;3.56;70.08
73633;BME280;61927;50.080;14.418;2023-02-15T05:12:35;100970.34;;;3.52;69.56
73633;BME280;61927;50.080;14.418;2023-02-15T05:15:01;100964.34;;;3.38;70.05
73633;BME280;61927;50.080;14.418;2023-02-15T05:17:27;100972.28;;;3.30;70.41
73633;BME280;61927;50.080;14.418;2023-02-15T05:19:52;100969.59;;;3.38;70.23
73633;BME280;61927;50.080;14.418;2023-02-15T05:22:18;100971.38;;;3.34;70.36
73633;BME280;61927;50.080;14.418;2023-02-15T05:24:43;100964.34;;;3.38;70.28
73633;BME280;61927;50.080;14.418;2023-02-15T05:27:28;100976.59;;;3.39;69.68
73633;BME280;61927;50.080;14.418;2023-02-15T05:30:12;100974.84;;;3.38;69.66
73633;BME280;61927;50.080;14.418;2023-02-15T05:32:38;100967.00;;;3.36;69.61
73633;BME280;61927;50.080;14.418;2023-02-15T05:35:07;100976.59;;;3.37;69.99
73633;BME280;61927;50.080;14.418;2023-02-15T05:37:33;100973.13;;;3.37;70.45
73633;BME280;61927;50.080;14.418;2023-02-15T05:39:59;100973.97;;;3.37;69.59
73633;BME280;61927;50.080;14.418;2023-02-15T05:42:24;100975.75;;;3.35;69.50
73633;BME280;61927;50.080;14.418;2023-02-15T05:44:50;100978.41;;;3.29;69.65
73633;BME280;61927;50.080;14.418;2023-02-15T05:47:15;100986.28;;;3.29;69.25
73633;BME280;61927;50.080;14.418;2023-02-15T05:49:41;100977.50;;;3.33;69.74
73633;BME280;61927;50.080;14.418;2023-02-15T05:52:07;100981.91;;;3.31;69.89
73633;BME280;61927;50.080;14.418;2023-02-15T05:54:33;100978.38;;;3.35;70.10
73633;BME280;61927;50.080;14.418;2023-02-15T05:56:59;100976.63;;;3.34;69.69
73633;BME280;61927;50.080;14.418;2023-02-15T05:59:24;100976.63;;;3.34;70.06
73633;BME280;61927;50.080;14.418;2023-02-15T06:01:50;100985.38;;;3.35;69.90
73633;BME280;61927;50.080;14.418;2023-02-15T06:04:15;100987.16;;;3.28;69.19
73633;BME280;61927;50.080;14.418;2023-02-15T06:06:41;100987.25;;;3.19;69.78
73633;BME280;61927;50.080;14.418;2023-02-15T06:09:07;100989.06;;;3.09;69.92
73633;BME280;61927;50.080;14.418;2023-02-15T06:11:32;100992.56;;;3.08;70.51
73633;BME280;61927;50.080;14.418;2023-02-15T06:13:58;100989.03;;;3.11;69.96
73633;BME280;61927;50.080;14.418;2023-02-15T06:16:23;100995.13;;;3.14;70.00
73633;BME280;61927;50.080;14.418;2023-02-15T06:18:49;100996.94;;;3.06;70.33
73633;BME280;61927;50.080;14.418;2023-02-15T06:21:15;100996.94;;;3.06;71.03
73633;BME280;61927;50.080;14.418;2023-02-15T06:23:41;101001.31;;;3.07;70.08
73633;BME280;61927;50.080;14.418;2023-02-15T06:26:07;101004.84;;;3.02;70.71
73633;BME280;61927;50.080;14.418;2023-02-15T06:28:32;101009.22;;;3.03;70.38
73633;BME280;61927;50.080;14.418;2023-02-15T06:30:58;101008.34;;;3.01;70.47
73633;BME280;61927;50.080;14.418;2023-02-15T06:33:23;101013.56;;;3.07;70.33
73633;BME280;61927;50.080;14.418;2023-02-15T06:35:49;101011.81;;;3.04;70.27
73633;BME280;61927;50.080;14.418;2023-02-15T06:38:15;101017.06;;;3.01;70.14
73633;BME280;61927;50.080;14.418;2023-02-15T06:40:40;101013.59;;;2.99;70.63
73633;BME280;61927;50.080;14.418;2023-02-15T06:43:06;101015.38;;;2.96;70.67
73633;BME280;61927;50.080;14.418;2023-02-15T06:45:32;101012.75;;;2.94;70.78
73633;BME280;61927;50.080;14.418;2023-02-15T06:47:57;101014.44;;;3.03;70.70
73633;BME280;61927;50.080;14.418;2023-02-15T06:50:23;101022.31;;;3.03;70.66
73633;BME280;61927;50.080;14.418;2023-02-15T06:52:48;101014.47;;;3.00;70.29
73633;BME280;61927;50.080;14.418;2023-02-15T06:55:14;101019.69;;;3.03;70.12
73633;BME280;61927;50.080;14.418;2023-02-15T06:57:40;101021.44;;;3.02;70.33
73633;BME280;61927;50.080;14.418;2023-02-15T07:00:06;101027.53;;;3.09;70.42
73633;BME280;61927;50.080;14.418;2023-02-15T07:02:33;101030.16;;;3.09;70.37
73633;BME280;61927;50.080;14.418;2023-02-15T07:04:59;101029.31;;;3.02;70.58
73633;BME280;61927;50.080;14.418;2023-02-15T07:07:24;101032.81;;;3.01;70.79
73633;BME280;61927;50.080;14.418;2023-02-15T07:09:50;101032.78;;;3.06;70.56
73633;BME280;61927;50.080;14.418;2023-02-15T07:12:16;101033.69;;;3.03;70.52
73633;BME280;61927;50.080;14.418;2023-02-15T07:15:00;101032.75;;;3.10;70.57
73633;BME280;61927;50.080;14.418;2023-02-15T07:17:26;101031.88;;;3.11;70.43
73633;BME280;61927;50.080;14.418;2023-02-15T07:19:54;101026.66;;;3.07;70.55
73633;BME280;61927;50.080;14.418;2023-02-15T07:22:20;101020.59;;;3.00;70.42
73633;BME280;61927;50.080;14.418;2023-02-15T07:24:45;101024.13;;;2.90;70.79
73633;BME280;61927;50.080;14.418;2023-02-15T07:27:11;101017.19;;;2.83;71.21
73633;BME280;61927;50.080;14.418;2023-02-15T07:29:37;101012.75;;;2.92;70.98
73633;BME280;61927;50.080;14.418;2023-02-15T07:32:02;101010.97;;;3.01;70.62
73633;BME280;61927;50.080;14.418;2023-02-15T07:34:28;101006.59;;;3.01;70.49
73633;BME280;61927;50.080;14.418;2023-02-15T07:36:53;100996.97;;;3.02;70.37
73633;BME280;61927;50.080;14.418;2023-02-15T07:39:19;100994.38;;;3.00;70.26
73633;BME280;61927;50.080;14.418;2023-02-15T07:41:46;100989.97;;;3.02;70.79
73633;BME280;61927;50.080;14.418;2023-02-15T07:44:14;100991.69;;;3.09;69.92
73633;BME280;61927;50.080;14.418;2023-02-15T07:46:40;100985.59;;;3.06;69.91
73633;BME280;61927;50.080;14.418;2023-02-15T07:49:05;100977.81;;;2.90;69.93
73633;BME280;61927;50.080;14.418;2023-02-15T07:51:31;100973.44;;;2.92;70.33
73633;BME280;61927;50.080;14.418;2023-02-15T07:53:56;100969.03;;;2.99;70.45
73633;BME280;61927;50.080;14.418;2023-02-15T07:56:22;100968.97;;;3.07;70.22
73633;BME280;61927;50.080;14.418;2023-02-15T07:58:48;100969.00;;;3.01;69.72
73633;BME280;61927;50.080;14.418;2023-02-15T08:01:27;100969.91;;;2.95;70.27
73633;BME280;61927;50.080;14.418;2023-02-15T08:03:55;100974.25;;;2.99;70.47
73633;BME280;61927;50.080;14.418;2023-02-15T08:06:22;100979.53;;;2.98;70.15
73633;BME280;61927;50.080;14.418;2023-02-15T08:08:49;100979.47;;;3.04;69.88
73633;BME280;61927;50.080;14.418;2023-02-15T08:11:25;100985.63;;;3.01;70.44
73633;BME280;61927;50.080;14.418;2023-02-15T08:13:53;100981.28;;;2.97;70.56
73633;BME280;61927;50.080;14.418;2023-02-15T08:16:46;100981.31;;;2.92;70.25
73633;BME280;61927;50.080;14.418;2023-02-15T08:19:22;100978.72;;;2.85;70.13
73633;BME280;61927;50.080;14.418;2023-02-15T08:21:50;100979.63;;;2.82;70.17
73633;BME280;61927;50.080;14.418;2023-02-15T08:24:19;100972.66;;;2.75;70.78
73633;BME280;61927;50.080;14.418;2023-02-15T08:26:45;100975.28;;;2.74;70.63
73633;BME280;61927;50.080;14.418;2023-02-15T08:29:16;100977.94;;;2.72;70.96
73633;BME280;61927;50.080;14.418;2023-02-15T08:31:42;100979.69;;;2.72;70.54
73633;BME280;61927;50.080;14.418;2023-02-15T08:34:09;100975.28;;;2.75;70.77
73633;BME280;61927;50.080;14.418;2023-02-15T08:36:36;100975.22;;;2.86;70.63
73633;BME280;61927;50.080;14.418;2023-02-15T08:39:04;100979.56;;;2.91;70.02
73633;BME280;61927;50.080;14.418;2023-02-15T08:41:32;100977.84;;;2.87;70.05
73633;BME280;61927;50.080;14.418;2023-02-15T08:44:02;100979.56;;;2.91;69.86
73633;BME280;61927;50.080;14.418;2023-02-15T08:46:30;100973.44;;;2.91;69.86
73633;BME280;61927;50.080;14.418;2023-02-15T08:48:56;100967.31;;;2.92;70.26
73633;BME280;61927;50.080;14.418;2023-02-15T08:51:24;100969.03;;;2.96;69.72
73633;BME280;61927;50.080;14.418;2023-02-15T08:53:53;100969.84;;;3.04;69.77
73633;BME280;61927;50.080;14.418;2023-02-15T08:56:22;100966.25;;;3.19;69.47
73633;BME280;61927;50.080;14.418;2023-02-15T08:58:48;100967.00;;;3.33;68.61
73633;BME280;61927;50.080;14.418;2023-02-15T09:01:17;100955.66;;;3.31;68.39
73633;BME280;61927;50.080;14.418;2023-02-15T09:03:47;100951.31;;;3.30;68.52
73633;BME280;61927;50.080;14.418;2023-02-15T09:06:15;100967.00;;;3.33;68.80
73633;BME280;61927;50.080;14.418;2023-02-15T09:08:41;100968.75;;;3.34;68.79
73633;BME280;61927;50.080;14.418;2023-02-15T09:11:15;100949.47;;;3.40;68.27
73633;BME280;61927;50.080;14.418;2023-02-15T09:13:49;100960.00;;;3.37;68.32
73633;BME280;61927;50.080;14.418;2023-02-15T09:16:14;100962.66;;;3.31;68.51
73633;BME280;61927;50.080;14.418;2023-02-15T09:18:42;100970.59;;;3.21;68.99
73633;BME280;61927;50.080;14.418;2023-02-15T09:21:11;100964.50;;;3.21;69.04
73633;BME280;61927;50.080;14.418;2023-02-15T09:23:39;100963.69;;;3.13;68.73
73633;BME280;61927;50.080;14.418;2023-02-15T09:26:07;100961.94;;;3.10;68.93
73633;BME280;61927;50.080;14.418;2023-02-15T09:28:33;100961.94;;;3.10;68.93
73633;BME280;61927;50.080;14.418;2023-02-15T09:31:16;100953.16;;;3.17;69.76
73633;BME280;61927;50.080;14.418;2023-02-15T09:33:43;100960.13;;;3.18;68.23
73633;BME280;61927;50.080;14.418;2023-02-15T09:38:50;100953.25;;;3.04;69.58
73633;BME280;61927;50.080;14.418;2023-02-15T09:41:24;100954.06;;;3.12;68.94
73633;BME280;61927;50.080;14.418;2023-02-15T09:44:00;100957.53;;;3.18;69.08
73633;BME280;61927;50.080;14.418;2023-02-15T09:54:36;100948.47;;;3.53;67.65
73633;BME280;61927;50.080;14.418;2023-02-15T09:57:16;100945.00;;;3.49;67.34
73633;BME280;61927;50.080;14.418;2023-02-15T10:09:04;100950.13;;;3.63;66.68
73633;BME280;61927;50.080;14.418;2023-02-15T10:11:54;100949.25;;;3.64;66.71
73633;BME280;61927;50.080;14.418;2023-02-15T10:14:42;100956.25;;;3.62;66.77
73633;BME280;61927;50.080;14.418;2023-02-15T10:25:46;100944.13;;;3.49;67.24
73633;BME280;61927;50.080;14.418;2023-02-15T10:28:23;100943.22;;;3.53;67.51
73633;BME280;61927;50.080;14.418;2023-02-15T10:30:51;100946.66;;;3.60;66.74
73633;BME280;61927;50.080;14.418;2023-02-15T10:33:39;100945.78;;;3.61;67.71
73633;BME280;61927;50.080;14.418;2023-02-15T10:36:16;100940.41;;;3.73;66.53
73633;BME280;61927;50.080;14.418;2023-02-15T10:42:09;100926.34;;;3.80;66.59
73633;BME280;61927;50.080;14.418;2023-02-15T10:50:40;100918.53;;;3.74;66.98
73633;BME280;61927;50.080;14.418;2023-02-15T11:04:39;100902.56;;;3.92;65.82
73633;BME280;61927;50.080;14.418;2023-02-15T11:06:53;100901.81;;;3.81;66.33
73633;BME280;61927;50.080;14.418;2023-02-15T11:09:22;100896.50;;;3.85;66.71
73633;BME280;61927;50.080;14.418;2023-02-15T11:11:54;100893.81;;;3.93;66.10
73633;BME280;61927;50.080;14.418;2023-02-15T11:17:04;100897.09;;;4.10;65.44
73633;BME280;61927;50.080;14.418;2023-02-15T11:19:37;100891.88;;;4.07;65.24
73633;BME280;61927;50.080;14.418;2023-02-15T11:22:06;100892.94;;;3.91;65.93
73633;BME280;61927;50.080;14.418;2023-02-15T11:24:42;100893.03;;;3.83;65.98
73633;BME280;61927;50.080;14.418;2023-02-15T11:27:30;100893.94;;;3.81;66.56
73633;BME280;61927;50.080;14.418;2023-02-15T11:30:02;100883.50;;;3.75;66.45
73633;BME280;61927;50.080;14.418;2023-02-15T11:32:34;100887.78;;;3.83;66.54
73633;BME280;61927;50.080;14.418;2023-02-15T11:41:03;100879.19;;;3.69;66.36
73633;BME280;61927;50.080;14.418;2023-02-15T11:43:38;100881.84;;;3.66;67.06
73633;BME280;61927;50.080;14.418;2023-02-15T11:46:05;100880.84;;;3.78;67.03
73633;BME280;61927;50.080;14.418;2023-02-15T11:48:33;100874.69;;;3.82;66.42
73633;BME280;61927;50.080;14.418;2023-02-15T11:51:00;100866.88;;;3.74;66.37
73633;BME280;61927;50.080;14.418;2023-02-15T11:53:31;100864.41;;;3.62;67.45
73633;BME280;61927;50.080;14.418;2023-02-15T11:55:58;100863.41;;;3.74;67.04
73633;BME280;61927;50.080;14.418;2023-02-15T11:58:37;100857.16;;;3.84;66.81
73633;BME280;61927;50.080;14.418;2023-02-15T12:01:14;100855.25;;;3.95;65.57
73633;BME280;61927;50.080;14.418;2023-02-15T12:03:47;100856.00;;;4.05;66.07
73633;BME280;61927;50.080;14.418;2023-02-15T12:06:37;100849.91;;;4.03;65.64
73633;BME280;61927;50.080;14.418;2023-02-15T12:09:15;100849.09;;;3.98;66.00
73633;BME280;61927;50.080;14.418;2023-02-15T12:11:44;100849.28;;;3.82;66.31
73633;BME280;61927;50.080;14.418;2023-02-15T12:14:12;100840.75;;;3.64;66.41
73633;BME280;61927;50.080;14.418;2023-02-15T12:16:47;100831.91;;;3.72;67.12
73633;BME280;61927;50.080;14.418;2023-02-15T12:19:46;100831.72;;;3.87;66.44
73633;BME280;61927;50.080;14.418;2023-02-15T12:22:27;100830.50;;;4.14;66.03
73633;BME280;61927;50.080;14.418;2023-02-15T12:25:19;100826.09;;;4.15;65.50
73633;BME280;61927;50.080;14.418;2023-02-15T12:27:46;100832.25;;;4.14;65.89
73633;BME280;61927;50.080;14.418;2023-02-15T12:30:32;100827.00;;;4.14;66.24
73633;BME280;61927;50.080;14.418;2023-02-15T12:33:13;100822.47;;;4.24;66.18
73633;BME280;61927;50.080;14.418;2023-02-15T12:35:40;100824.28;;;4.20;66.14
73633;BME280;61927;50.080;14.418;2023-02-15T12:38:23;100818.22;;;4.15;65.92
73633;BME280;61927;50.080;14.418;2023-02-15T12:41:22;100816.44;;;4.17;65.83
73633;BME280;61927;50.080;14.418;2023-02-15T12:44:03;100801.56;;;4.17;65.82
73633;BME280;61927;50.080;14.418;2023-02-15T12:46:29;100802.38;;;4.21;65.58
73633;BME280;61927;50.080;14.418;2023-02-15T12:49:17;100797.94;;;4.26;65.65
73633;BME280;61927;50.080;14.418;2023-02-15T12:51:44;100798.00;;;4.21;65.93
73633;BME280;61927;50.080;14.418;2023-02-15T12:54:31;100789.09;;;4.30;66.50
73633;BME280;61927;50.080;14.418;2023-02-15T12:56:58;100790.63;;;4.45;65.47
73633;BME280;61927;50.080;14.418;2023-02-15T12:59:24;100785.22;;;4.56;66.07
73633;BME280;61927;50.080;14.418;2023-02-15T13:01:53;100786.81;;;4.64;64.51
73633;BME280;61927;50.080;14.418;2023-02-15T13:04:29;100786.84;;;4.63;63.95
73633;BME280;61927;50.080;14.418;2023-02-15T13:06:57;100782.47;;;4.62;65.13
73633;BME280;61927;50.080;14.418;2023-02-15T13:12:09;100777.69;;;4.86;63.33
73633;BME280;61927;50.080;14.418;2023-02-15T13:14:35;100766.41;;;4.80;63.70
73633;BME280;61927;50.080;14.418;2023-02-15T13:17:03;100768.09;;;4.82;63.83
73633;BME280;61927;50.080;14.418;2023-02-15T13:19:39;100768.91;;;4.88;63.69
73633;BME280;61927;50.080;14.418;2023-02-15T13:22:12;100760.97;;;4.89;62.85
73633;BME280;61927;50.080;14.418;2023-02-15T13:24:42;100765.34;;;4.90;62.92
73633;BME280;61927;50.080;14.418;2023-02-15T13:27:17;100760.88;;;4.95;63.20
73633;BME280;61927;50.080;14.418;2023-02-15T13:29:50;100763.59;;;4.89;62.95
73633;BME280;61927;50.080;14.418;2023-02-15T13:32:27;100763.56;;;4.91;63.24
73633;BME280;61927;50.080;14.418;2023-02-15T13:34:59;100763.56;;;4.92;63.06
73633;BME280;61927;50.080;14.418;2023-02-15T13:37:37;100766.22;;;4.89;62.91
73633;BME280;61927;50.080;14.418;2023-02-15T13:42:48;100755.97;;;4.74;64.24
73633;BME280;61927;50.080;14.418;2023-02-15T13:45:39;100753.22;;;4.81;64.24
73633;BME280;61927;50.080;14.418;2023-02-15T13:51:21;100751.22;;;4.96;63.54
73633;BME280;61927;50.080;14.418;2023-02-15T13:59:32;100744.03;;;5.04;63.00
73633;BME280;61927;50.080;14.418;2023-02-15T14:10:12;100734.25;;;5.12;63.82
73633;BME280;61927;50.080;14.418;2023-02-15T14:15:46;100743.03;;;5.11;62.48
73633;BME280;61927;50.080;14.418;2023-02-15T14:20:56;100736.13;;;5.05;61.99
73633;BME280;61927;50.080;14.418;2023-02-15T14:26:35;100732.63;;;5.05;62.79
73633;BME280;61927;50.080;14.418;2023-02-15T14:29:20;100733.59;;;5.01;62.53
73633;BME280;61927;50.080;14.418;2023-02-15T14:31:57;100729.16;;;5.03;62.89
73633;BME280;61927;50.080;14.418;2023-02-15T14:34:29;100723.81;;;5.07;62.47
73633;BME280;61927;50.080;14.418;2023-02-15T14:36:57;100719.66;;;4.96;63.25
73633;BME280;61927;50.080;14.418;2023-02-15T14:39:26;100725.88;;;4.90;63.09
73633;BME280;61927;50.080;14.418;2023-02-15T14:42:32;100722.53;;;4.82;63.66
73633;BME280;61927;50.080;14.418;2023-02-15T14:45:21;100719.19;;;4.74;64.22
73633;BME280;61927;50.080;14.418;2023-02-15T14:48:01;100718.44;;;4.66;63.94
73633;BME280;61927;50.080;14.418;2023-02-15T14:55:42;100720.75;;;4.33;65.01
73633;BME280;61927;50.080;14.418;2023-02-15T14:58:12;100721.06;;;4.12;65.19
73633;BME280;61927;50.080;14.418;2023-02-15T15:00:39;100723.84;;;4.03;66.42
73633;BME280;61927;50.080;14.418;2023-02-15T15:03:12;100724.75;;;4.00;66.10
73633;BME280;61927;50.080;14.418;2023-02-15T15:05:50;100722.94;;;4.04;66.34
73633;BME280;61927;50.080;14.418;2023-02-15T15:08:32;100723.03;;;3.99;66.89
73633;BME280;61927;50.080;14.418;2023-02-15T15:14:00;100726.94;;;3.71;67.44